CPA939 VHHH-RPLL
Flight info
| Callsign | CPA939 |
|---|---|
| Flight time | N/A |
| Altitude | 37000 |
| Route | DALOL V642 NOMAN A461 AVMUP W16 TADEL TADEL3R |
| Aircraft | A21N/M-SDE2E3FGHIRWXY/LB1 |
Departure
| Time | 2026-05-04 16:40 |
|---|---|
| Airport | Hong Kong International Airport (VHHH) |
Arrival
| Time | N/A |
|---|---|
| Airport | Ninoy Aquino International Airport (RPLL) |
| Time | Latitude | Longitude | Altitude | Speed | Heading |
|---|---|---|---|---|---|
| 2026-05-04 16:15 | 22.31337 | 113.92538 | 32 ft | 0 kts | 26° |
| 2026-05-04 16:21 | 22.31323 | 113.92530 | 32 ft | 2 kts | 26° |
| 2026-05-04 16:22 | 22.31296 | 113.92516 | 32 ft | 2 kts | 26° |
| 2026-05-04 16:22 | 22.31259 | 113.92490 | 32 ft | 2 kts | 67° |
| 2026-05-04 16:23 | 22.31256 | 113.92470 | 32 ft | 2 kts | 111° |
| 2026-05-04 16:24 | 22.31253 | 113.92480 | 32 ft | 0 kts | 116° |
| 2026-05-04 16:28 | 22.31227 | 113.92514 | 32 ft | 5 kts | 148° |
| 2026-05-04 16:29 | 22.31060 | 113.92442 | 32 ft | 5 kts | 206° |
| 2026-05-04 16:30 | 22.30940 | 113.92381 | 32 ft | 8 kts | 206° |
| 2026-05-04 16:31 | 22.30807 | 113.92323 | 32 ft | 10 kts | 169° |
| 2026-05-04 16:31 | 22.30610 | 113.92297 | 32 ft | 13 kts | 254° |
| 2026-05-04 16:32 | 22.30507 | 113.91973 | 32 ft | 16 kts | 248° |
| 2026-05-04 16:33 | 22.30427 | 113.91728 | 32 ft | 17 kts | 249° |
| 2026-05-04 16:33 | 22.30350 | 113.91498 | 32 ft | 15 kts | 251° |
| 2026-05-04 16:34 | 22.30275 | 113.91261 | 32 ft | 17 kts | 251° |
| 2026-05-04 16:34 | 22.30234 | 113.91136 | 32 ft | 18 kts | 250° |
| 2026-05-04 16:35 | 22.30110 | 113.90756 | 32 ft | 17 kts | 251° |
| 2026-05-04 16:35 | 22.29992 | 113.90385 | 32 ft | 17 kts | 250° |
| 2026-05-04 16:36 | 22.29952 | 113.90263 | 32 ft | 17 kts | 252° |
| 2026-05-04 16:36 | 22.29873 | 113.90022 | 32 ft | 16 kts | 255° |
| 2026-05-04 16:37 | 22.29785 | 113.89868 | 32 ft | 3 kts | 163° |
| 2026-05-04 16:37 | 22.29782 | 113.89870 | 32 ft | 0 kts | 160° |
| 2026-05-04 16:37 | 22.29780 | 113.89871 | 32 ft | 0 kts | 160° |
| 2026-05-04 16:38 | 22.29765 | 113.89876 | 32 ft | 1 kts | 161° |
| 2026-05-04 16:39 | 22.29703 | 113.89899 | 32 ft | 5 kts | 161° |
| 2026-05-04 16:39 | 22.29668 | 113.89921 | 32 ft | 4 kts | 113° |
| 2026-05-04 16:40 | 22.29818 | 113.90409 | 32 ft | 104 kts | 71° |
| 2026-05-04 16:40 | 22.30555 | 113.92579 | 930 ft | 170 kts | 72° |
| 2026-05-04 16:41 | 22.31368 | 113.95163 | 2260 ft | 200 kts | 73° |
| 2026-05-04 16:41 | 22.32819 | 113.99773 | 4487 ft | 225 kts | 72° |
| 2026-05-04 16:42 | 22.33349 | 114.04913 | 5932 ft | 263 kts | 122° |
| 2026-05-04 16:43 | 22.30734 | 114.07831 | 7665 ft | 278 kts | 143° |
| 2026-05-04 16:43 | 22.27086 | 114.08903 | 9474 ft | 283 kts | 182° |
| 2026-05-04 16:43 | 22.25130 | 114.08847 | 10344 ft | 287 kts | 184° |
| 2026-05-04 16:44 | 22.16499 | 114.09626 | 13030 ft | 343 kts | 151° |
| 2026-05-04 16:45 | 22.13533 | 114.13711 | 14638 ft | 361 kts | 119° |
| 2026-05-04 16:46 | 22.10150 | 114.21109 | 16934 ft | 373 kts | 119° |
| 2026-05-04 16:46 | 22.07508 | 114.25924 | 18330 ft | 377 kts | 133° |
| 2026-05-04 16:47 | 22.03569 | 114.29597 | 19663 ft | 379 kts | 148° |
| 2026-05-04 16:47 | 21.99243 | 114.32914 | 20929 ft | 387 kts | 149° |
| 2026-05-04 16:48 | 21.94191 | 114.39891 | 22717 ft | 411 kts | 120° |
| 2026-05-04 16:48 | 21.92872 | 114.42620 | 23333 ft | 413 kts | 121° |
| 2026-05-04 16:49 | 21.90092 | 114.48057 | 24431 ft | 420 kts | 120° |
| 2026-05-04 16:49 | 21.87641 | 114.53852 | 25458 ft | 429 kts | 117° |
| 2026-05-04 16:50 | 21.85166 | 114.59753 | 26425 ft | 435 kts | 118° |
| 2026-05-04 16:50 | 21.82613 | 114.65674 | 27334 ft | 442 kts | 119° |
| 2026-05-04 16:51 | 21.79990 | 114.71689 | 28174 ft | 447 kts | 120° |
| 2026-05-04 16:51 | 21.78670 | 114.74712 | 28587 ft | 450 kts | 120° |
| 2026-05-04 16:51 | 21.75986 | 114.80803 | 29369 ft | 454 kts | 122° |
| 2026-05-04 16:52 | 21.72805 | 114.86683 | 30109 ft | 454 kts | 129° |
| 2026-05-04 16:52 | 21.70991 | 114.89410 | 30461 ft | 454 kts | 133° |
| 2026-05-04 16:53 | 21.67128 | 114.94831 | 31087 ft | 459 kts | 133° |
| 2026-05-04 16:53 | 21.61310 | 115.03014 | 32354 ft | 458 kts | 133° |
| 2026-05-04 16:54 | 21.59365 | 115.05757 | 32841 ft | 455 kts | 133° |
| 2026-05-04 16:55 | 21.51689 | 115.16553 | 34015 ft | 461 kts | 133° |
| 2026-05-04 16:55 | 21.47785 | 115.22035 | 34545 ft | 464 kts | 132° |
| 2026-05-04 16:56 | 21.43885 | 115.27512 | 35025 ft | 467 kts | 132° |
| 2026-05-04 16:56 | 21.37961 | 115.35825 | 35038 ft | 467 kts | 132° |
| 2026-05-04 16:57 | 21.31733 | 115.43746 | 35039 ft | 464 kts | 140° |
| 2026-05-04 16:58 | 21.24750 | 115.51277 | 35040 ft | 485 kts | 139° |
| 2026-05-04 16:58 | 21.22395 | 115.53841 | 35039 ft | 490 kts | 139° |
| 2026-05-04 17:00 | 21.08098 | 115.69513 | 35036 ft | 490 kts | 139° |
| 2026-05-04 17:01 | 20.96213 | 115.82519 | 35037 ft | 489 kts | 139° |
| 2026-05-04 17:02 | 20.86710 | 115.92894 | 35037 ft | 488 kts | 139° |
| 2026-05-04 17:03 | 20.79547 | 116.00699 | 35038 ft | 493 kts | 139° |
| 2026-05-04 17:03 | 20.72354 | 116.08488 | 35037 ft | 491 kts | 139° |
| 2026-05-04 17:04 | 20.62780 | 116.18800 | 35037 ft | 490 kts | 139° |
| 2026-05-04 17:05 | 20.53220 | 116.29089 | 35037 ft | 484 kts | 139° |
| 2026-05-04 17:06 | 20.46134 | 116.36698 | 35037 ft | 484 kts | 139° |
| 2026-05-04 17:07 | 20.39812 | 116.43479 | 35037 ft | 483 kts | 139° |
| 2026-05-04 17:07 | 20.34290 | 116.49393 | 35037 ft | 483 kts | 139° |
| 2026-05-04 17:08 | 20.27201 | 116.56979 | 35037 ft | 483 kts | 139° |
| 2026-05-04 17:09 | 20.22460 | 116.62043 | 35037 ft | 483 kts | 139° |
| 2026-05-04 17:09 | 20.17715 | 116.67111 | 35036 ft | 482 kts | 139° |
| 2026-05-04 17:10 | 20.05914 | 116.79694 | 35037 ft | 482 kts | 139° |
| 2026-05-04 17:11 | 20.01193 | 116.84716 | 35037 ft | 482 kts | 139° |
| 2026-05-04 17:12 | 19.94140 | 116.92211 | 35037 ft | 478 kts | 139° |
| 2026-05-04 17:13 | 19.82397 | 117.04680 | 35025 ft | 478 kts | 139° |
| 2026-05-04 17:14 | 19.73017 | 117.14617 | 35007 ft | 477 kts | 139° |
| 2026-05-04 17:15 | 19.65990 | 117.22050 | 34993 ft | 477 kts | 139° |
| 2026-05-04 17:16 | 19.56613 | 117.31953 | 34983 ft | 477 kts | 139° |
| 2026-05-04 17:17 | 19.47238 | 117.41837 | 34982 ft | 476 kts | 139° |
| 2026-05-04 17:18 | 19.37874 | 117.51693 | 34982 ft | 476 kts | 139° |
| 2026-05-04 17:19 | 19.28499 | 117.61545 | 34983 ft | 475 kts | 139° |
| 2026-05-04 17:20 | 19.19120 | 117.71382 | 34982 ft | 475 kts | 139° |
| 2026-05-04 17:20 | 19.12094 | 117.78743 | 34979 ft | 475 kts | 139° |
| 2026-05-04 17:21 | 19.02744 | 117.88528 | 34966 ft | 475 kts | 139° |
| 2026-05-04 17:22 | 18.98047 | 117.93442 | 34958 ft | 475 kts | 139° |
| 2026-05-04 17:23 | 18.88708 | 118.03210 | 34955 ft | 474 kts | 139° |
| 2026-05-04 17:24 | 18.81691 | 118.10536 | 34954 ft | 475 kts | 139° |
| 2026-05-04 17:25 | 18.72309 | 118.20318 | 34954 ft | 474 kts | 139° |
| 2026-05-04 17:26 | 18.62942 | 118.30068 | 34949 ft | 474 kts | 139° |
| 2026-05-04 17:27 | 18.51210 | 118.42257 | 34933 ft | 474 kts | 139° |
| 2026-05-04 17:28 | 18.41840 | 118.51975 | 34928 ft | 474 kts | 139° |
| 2026-05-04 17:29 | 18.27692 | 118.66620 | 34926 ft | 474 kts | 139° |
| 2026-05-04 17:31 | 18.15946 | 118.78752 | 34928 ft | 475 kts | 139° |
| 2026-05-04 17:32 | 18.04187 | 118.90854 | 34922 ft | 475 kts | 140° |
| 2026-05-04 17:33 | 17.93755 | 118.99098 | 34913 ft | 469 kts | 153° |
| 2026-05-04 17:34 | 17.82345 | 119.05726 | 34904 ft | 468 kts | 154° |
| 2026-05-04 17:35 | 17.68121 | 119.13950 | 34899 ft | 469 kts | 154° |
| 2026-05-04 17:36 | 17.62454 | 119.17226 | 34899 ft | 469 kts | 154° |
| 2026-05-04 17:36 | 17.56741 | 119.20528 | 34899 ft | 469 kts | 154° |
| 2026-05-04 17:37 | 17.51052 | 119.23812 | 34899 ft | 469 kts | 154° |
| 2026-05-04 17:37 | 17.45359 | 119.27097 | 34899 ft | 470 kts | 154° |
| 2026-05-04 17:38 | 17.39632 | 119.30399 | 34900 ft | 470 kts | 154° |
| 2026-05-04 17:38 | 17.33922 | 119.33688 | 34904 ft | 470 kts | 154° |
| 2026-05-04 17:39 | 17.25349 | 119.38623 | 34915 ft | 469 kts | 154° |
| 2026-05-04 17:39 | 17.19661 | 119.41894 | 34921 ft | 470 kts | 154° |
| 2026-05-04 17:40 | 17.13988 | 119.45155 | 34924 ft | 470 kts | 154° |
| 2026-05-04 17:40 | 17.08205 | 119.48476 | 34926 ft | 470 kts | 154° |
| 2026-05-04 17:41 | 17.02500 | 119.51750 | 34926 ft | 470 kts | 154° |
| 2026-05-04 17:41 | 16.96791 | 119.55025 | 34926 ft | 470 kts | 154° |
| 2026-05-04 17:42 | 16.91083 | 119.58296 | 34926 ft | 470 kts | 154° |
| 2026-05-04 17:42 | 16.85357 | 119.61575 | 34926 ft | 470 kts | 154° |
| 2026-05-04 17:43 | 16.79622 | 119.64856 | 34926 ft | 471 kts | 154° |
| 2026-05-04 17:43 | 16.73900 | 119.68127 | 34926 ft | 470 kts | 154° |
| 2026-05-04 17:44 | 16.68166 | 119.71405 | 34926 ft | 470 kts | 154° |
| 2026-05-04 17:44 | 16.66972 | 119.72087 | 34926 ft | 470 kts | 154° |